Time;durP1;ratioP1;P1;durP2;ratioP2;P2;SDS_P1;SDS_P2;PMS_P1;PMS_P2;Temp;Humidity;BMP_temperature;BMP_pressure;BME280_temperature;BME280_humidity;BME280_pressure;Samples;Min_cycle;Max_cycle;Signal;HPM_P1;HPM_P2
2023/12/31 00:01:33;;;;;;;10.10;6.40;;;;;;;2.82;100.00;95463.16;7398022;19;20694;-91
2023/12/31 00:04:19;;;;;;;8.30;7.20;;;;;;;3.15;100.00;95508.25;7397726;19;20368;-91
2023/12/31 00:07:04;;;;;;;8.90;6.83;;;;;;;3.16;100.00;95507.22;7397682;19;20654;-91
2023/12/31 00:09:48;;;;;;;10.93;8.43;;;;;;;2.74;100.00;95416.31;7396769;19;20371;-91
2023/12/31 00:12:31;;;;;;;7.57;6.87;;;;;;;3.50;100.00;95509.03;7396179;19;20413;-92
2023/12/31 00:15:14;;;;;;;12.60;7.50;;;;;;;3.57;100.00;95509.50;7396583;19;20388;-92
2023/12/31 00:17:55;;;;;;;8.77;7.87;;;;;;;3.81;100.00;95559.59;7397196;19;20406;-91
2023/12/31 00:20:44;;;;;;;11.87;7.33;;;;;;;2.69;100.00;95379.03;7397371;19;20365;-91
2023/12/31 00:23:27;;;;;;;8.70;6.83;;;;;;;3.66;100.00;95520.81;7401341;19;20443;-91
2023/12/31 00:26:10;;;;;;;9.03;6.33;;;;;;;3.52;100.00;95493.97;7405974;19;20361;-91
2023/12/31 00:29:05;;;;;;;8.87;5.50;;;;;;;3.26;100.00;95455.28;7402291;19;20377;-91
2023/12/31 00:31:49;;;;;;;6.70;5.20;;;;;;;3.12;100.00;95440.63;7402778;19;20418;-91
2023/12/31 00:34:36;;;;;;;5.40;4.70;;;;;;;3.08;100.00;95424.09;7403952;19;20898;-91
2023/12/31 00:37:22;;;;;;;4.33;3.87;;;;;;;3.45;100.00;95465.78;7404179;19;20378;-91
2023/12/31 00:40:12;;;;;;;7.90;4.50;;;;;;;2.95;100.00;95387.38;7403881;19;20376;-91
2023/12/31 00:42:55;;;;;;;4.73;4.20;;;;;;;3.42;100.00;95460.34;7401627;19;20500;-90
2023/12/31 00:45:36;;;;;;;6.07;4.70;;;;;;;3.26;100.00;95423.41;7403480;19;20689;-91
2023/12/31 00:48:19;;;;;;;5.00;4.57;;;;;;;3.57;100.00;95468.78;7401898;19;20376;-91
2023/12/31 00:51:04;;;;;;;4.63;4.23;;;;;;;2.95;100.00;95358.88;7403832;19;20382;-91
2023/12/31 00:53:48;;;;;;;6.50;4.70;;;;;;;3.30;100.00;95412.22;7403057;19;20880;-91
2023/12/31 00:56:34;;;;;;;4.90;4.30;;;;;;;4.23;100.00;95550.34;7403002;19;20373;-91
2023/12/31 00:59:16;;;;;;;4.00;3.70;;;;;;;3.62;100.00;95464.56;7402589;19;20379;-92
2023/12/31 01:01:57;;;;;;;4.80;4.30;;;;;;;3.83;100.00;95494.44;7401262;19;20411;-91
2023/12/31 01:04:38;;;;;;;5.10;4.70;;;;;;;3.37;100.00;95431.88;7401727;19;20392;-91
2023/12/31 01:07:19;;;;;;;4.37;3.83;;;;;;;2.79;100.00;95364.47;7401667;19;20460;-91
2023/12/31 01:10:01;;;;;;;8.83;3.97;;;;;;;4.23;100.00;95550.34;7401892;19;20385;-91
2023/12/31 01:12:42;;;;;;;3.97;3.67;;;;;;;3.36;100.00;95418.13;7400176;19;20396;-91
2023/12/31 01:15:23;;;;;;;6.17;4.57;;;;;;;3.08;100.00;95372.25;7402223;19;20380;-91
2023/12/31 01:18:04;;;;;;;4.47;4.07;;;;;;;3.36;100.00;95414.75;7401601;19;20460;-91
2023/12/31 01:20:46;;;;;;;4.60;3.90;;;;;;;3.47;100.00;95419.56;7402233;19;20409;-91
2023/12/31 01:23:28;;;;;;;6.27;4.80;;;;;;;3.49;100.00;95443.41;7398904;19;20452;-91
2023/12/31 01:26:09;;;;;;;5.50;4.40;;;;;;;3.75;100.00;95484.69;7401258;19;20412;-91
2023/12/31 01:28:50;;;;;;;6.03;4.60;;;;;;;3.16;100.00;95382.78;7400378;19;20866;-90
2023/12/31 01:31:31;;;;;;;5.43;4.17;;;;;;;3.62;100.00;95454.97;7400921;19;20383;-91
2023/12/31 01:34:12;;;;;;;6.97;4.10;;;;;;;3.50;100.00;95447.56;7401421;19;20460;-91
2023/12/31 01:36:53;;;;;;;9.90;4.93;;;;;;;3.28;100.00;95406.50;7400791;19;20372;-91
2023/12/31 01:39:34;;;;;;;5.50;4.60;;;;;;;2.76;100.00;95318.38;7401229;19;20407;-90
2023/12/31 01:42:17;;;;;;;8.17;5.40;;;;;;;3.81;100.00;95479.16;7400101;19;20428;-91
2023/12/31 01:44:58;;;;;;;8.43;5.30;;;;;;;3.43;100.00;95428.97;7401585;19;20376;-91
2023/12/31 01:47:43;;;;;;;7.10;4.40;;;;;;;3.13;100.00;95377.38;7401747;19;20890;-90
2023/12/31 01:50:25;;;;;;;7.67;4.60;;;;;;;3.85;100.00;95482.00;7401652;19;20410;-91
2023/12/31 01:53:06;;;;;;;7.80;5.23;;;;;;;3.69;100.00;95465.78;7398128;19;20412;-90
2023/12/31 01:55:49;;;;;;;9.03;5.77;;;;;;;2.75;100.00;95316.81;7400234;19;20392;-91
2023/12/31 01:58:30;;;;;;;8.33;6.33;;;;;;;3.63;100.00;95453.91;7400015;19;20468;-90
2023/12/31 02:01:11;;;;;;;8.63;6.00;;;;;;;3.14;100.00;95373.72;7400109;19;20388;-90
2023/12/31 02:03:52;;;;;;;9.00;5.37;;;;;;;3.47;100.00;95424.00;7399819;19;20698;-91
2023/12/31 02:06:34;;;;;;;11.90;4.73;;;;;;;2.99;100.00;95361.69;7400258;19;20420;-91
2023/12/31 02:09:15;;;;;;;7.33;4.30;;;;;;;3.28;100.00;95387.59;7397997;19;20373;-90
2023/12/31 02:11:57;;;;;;;5.47;4.47;;;;;;;3.75;100.00;95430.19;7399302;19;20420;-91
2023/12/31 02:14:39;;;;;;;7.63;4.50;;;;;;;4.16;100.00;95482.41;7399485;19;20376;-91
2023/12/31 02:17:20;;;;;;;6.00;5.40;;;;;;;4.24;100.00;95489.63;7400574;19;20372;-91
2023/12/31 02:20:02;;;;;;;5.40;4.53;;;;;;;4.10;100.00;95478.31;7399551;19;20381;-91
2023/12/31 02:22:43;;;;;;;4.50;4.10;;;;;;;3.61;100.00;95406.72;7398921;19;20416;-90
2023/12/31 02:25:26;;;;;;;5.40;4.70;;;;;;;3.21;100.00;95348.28;7400041;19;20389;-91
2023/12/31 02:28:08;;;;;;;5.93;4.87;;;;;;;3.62;100.00;95405.69;7399070;19;20738;-91
2023/12/31 02:30:50;;;;;;;6.00;4.67;;;;;;;3.53;100.00;95376.19;7399227;19;20714;-91
2023/12/31 02:33:32;;;;;;;5.50;4.40;;;;;;;3.58;100.00;95418.44;7397968;19;20400;-91
2023/12/31 02:36:17;;;;;;;4.50;4.10;;;;;;;3.04;100.00;95337.56;7397932;19;20340;-91
2023/12/31 02:38:58;;;;;;;6.07;4.83;;;;;;;3.20;100.00;95370.06;7399150;19;20894;-91
2023/12/31 02:41:39;;;;;;;5.37;4.87;;;;;;;3.20;100.00;95357.88;7399396;19;20933;-90
2023/12/31 02:44:21;;;;;;;9.30;5.07;;;;;;;2.27;100.00;95226.09;7398215;19;20391;-91
2023/12/31 02:47:02;;;;;;;6.53;4.53;;;;;;;3.19;100.00;95358.91;7398663;19;20456;-91
2023/12/31 02:49:43;;;;;;;4.57;4.17;;;;;;;3.23;100.00;95367.69;7397483;19;20389;-91
2023/12/31 02:52:24;;;;;;;5.30;4.80;;;;;;;2.52;100.00;95249.19;7397274;19;20412;-91
2023/12/31 02:55:05;;;;;;;4.10;3.80;;;;;;;3.28;100.00;95370.22;7399787;19;20385;-91
2023/12/31 02:57:48;;;;;;;4.30;3.90;;;;;;;3.54;100.00;95383.69;7398370;19;20880;-91
2023/12/31 03:00:29;;;;;;;7.67;4.60;;;;;;;3.72;100.00;95395.19;7397986;19;20682;-91
2023/12/31 03:03:11;;;;;;;5.87;4.50;;;;;;;3.61;100.00;95354.84;7397090;19;20412;-91
2023/12/31 03:05:52;;;;;;;6.70;4.70;;;;;;;3.04;100.00;95252.03;7397949;19;20385;-91
2023/12/31 03:08:33;;;;;;;8.00;4.87;;;;;;;3.74;100.00;95372.34;7397223;19;20379;-91
2023/12/31 03:11:14;;;;;;;5.43;4.93;;;;;;;3.10;100.00;95264.66;7397640;19;20384;-91
2023/12/31 03:13:55;;;;;;;5.27;4.77;;;;;;;3.49;100.00;95328.53;7398342;19;20372;-91
2023/12/31 03:16:39;;;;;;;5.20;4.57;;;;;;;3.51;100.00;95331.59;7398624;19;20385;-91
2023/12/31 03:19:20;;;;;;;4.97;4.47;;;;;;;3.17;100.00;95285.84;7397397;19;20380;-91
2023/12/31 03:22:01;;;;;;;4.73;4.20;;;;;;;3.67;100.00;95356.31;7397839;19;20692;-91
2023/12/31 03:24:43;;;;;;;7.60;4.53;;;;;;;2.98;100.00;95265.03;7396239;19;20438;-91
2023/12/31 03:27:24;;;;;;;5.13;4.67;;;;;;;3.10;100.00;95269.84;7397403;19;20384;-91
2023/12/31 03:30:07;;;;;;;6.00;4.57;;;;;;;3.57;100.00;95346.84;7397588;19;20369;-91
2023/12/31 03:32:48;;;;;;;5.73;4.10;;;;;;;3.39;100.00;95326.81;7395995;19;20892;-90
2023/12/31 03:35:29;;;;;;;4.50;4.10;;;;;;;3.09;100.00;95272.72;7397319;19;20852;-91
2023/12/31 03:38:11;;;;;;;5.67;5.17;;;;;;;2.89;100.00;95237.41;7397804;19;20365;-91
2023/12/31 03:40:52;;;;;;;4.47;4.13;;;;;;;3.29;100.00;95308.75;7396877;19;20373;-91
2023/12/31 03:43:33;;;;;;;5.40;4.90;;;;;;;3.58;100.00;95347.63;7395401;19;20388;-90
2023/12/31 03:46:14;;;;;;;5.67;5.17;;;;;;;2.91;100.00;95228.34;7397311;19;20723;-92
2023/12/31 03:48:58;;;;;;;3.93;3.60;;;;;;;2.71;100.00;95203.41;7396025;19;20380;-91
2023/12/31 03:51:39;;;;;;;5.60;5.07;;;;;;;2.30;100.00;95159.03;7396531;19;20424;-91
2023/12/31 03:54:20;;;;;;;4.37;4.07;;;;;;;2.56;100.00;95206.16;7397369;19;20847;-91
2023/12/31 03:57:01;;;;;;;5.33;4.33;;;;;;;3.75;100.00;95373.88;7401030;19;20381;-91
2023/12/31 03:59:42;;;;;;;4.77;4.20;;;;;;;2.51;100.00;95189.91;7404116;19;20384;-91
2023/12/31 04:02:24;;;;;;;3.93;3.53;;;;;;;3.37;100.00;95322.97;7402722;19;20739;-91
2023/12/31 04:05:06;;;;;;;5.70;5.20;;;;;;;2.63;100.00;95219.56;7404199;19;20389;-91
2023/12/31 04:07:47;;;;;;;6.10;4.43;;;;;;;3.28;100.00;95333.91;7403424;19;20885;-90
2023/12/31 04:10:29;;;;;;;4.97;4.47;;;;;;;2.32;100.00;95192.41;7403595;19;20387;-91
2023/12/31 04:13:10;;;;;;;4.90;4.50;;;;;;;2.92;100.00;95263.56;7401141;19;20408;-91
2023/12/31 04:15:56;;;;;;;7.07;4.50;;;;;;;3.51;100.00;95365.31;7403928;19;20383;-91
2023/12/31 04:18:40;;;;;;;8.63;5.47;;;;;;;2.56;100.00;95200.22;7404714;19;20398;-91
2023/12/31 04:21:21;;;;;;;5.70;4.17;;;;;;;2.31;100.00;95165.75;7404287;19;20685;-91
2023/12/31 04:24:02;;;;;;;5.50;4.47;;;;;;;2.77;100.00;95237.03;7402249;19;20396;-91
2023/12/31 04:26:46;;;;;;;8.00;5.10;;;;;;;2.14;100.00;95149.09;7404107;19;20364;-91
2023/12/31 04:29:27;;;;;;;5.40;4.90;;;;;;;2.81;100.00;95256.94;7401125;19;20369;-91
2023/12/31 04:32:09;;;;;;;4.80;4.40;;;;;;;2.74;100.00;95255.69;7402578;19;20388;-91
2023/12/31 04:34:50;;;;;;;6.57;4.93;;;;;;;2.09;100.00;95163.59;7403984;19;20381;-91
2023/12/31 04:37:31;;;;;;;5.60;4.83;;;;;;;2.70;100.00;95245.13;7404157;19;20464;-91
2023/12/31 04:40:12;;;;;;;6.60;5.37;;;;;;;2.83;100.00;95249.66;7403606;19;20357;-91
2023/12/31 04:42:53;;;;;;;11.50;5.47;;;;;;;2.32;100.00;95174.28;7401450;19;20766;-91
2023/12/31 04:45:34;;;;;;;8.20;5.17;;;;;;;2.76;100.00;95238.06;7402476;19;20372;-91
2023/12/31 04:48:16;;;;;;;8.83;4.90;;;;;;;2.79;100.00;95253.09;7402788;19;20384;-91
2023/12/31 04:50:57;;;;;;;5.50;4.60;;;;;;;2.94;100.00;95268.47;7403268;19;20393;-91
2023/12/31 04:53:38;;;;;;;4.63;4.20;;;;;;;1.77;100.00;95114.22;7401114;19;20426;-91
2023/12/31 04:56:24;;;;;;;6.33;5.83;;;;;;;3.03;100.00;95310.06;7414063;19;20448;-90
2023/12/31 04:59:05;;;;;;;7.73;6.40;;;;;;;1.66;100.00;95116.13;7432664;19;20429;-90
2023/12/31 05:01:50;;;;;;;7.20;5.93;;;;;;;3.04;100.00;95320.19;7431995;19;20425;-91
2023/12/31 05:04:31;;;;;;;5.90;5.37;;;;;;;2.43;100.00;95230.09;7432517;19;20385;-90
2023/12/31 05:07:12;;;;;;;7.40;6.20;;;;;;;2.26;100.00;95175.38;7431558;19;20432;-90
2023/12/31 05:09:56;;;;;;;9.20;5.90;;;;;;;2.02;100.00;95132.13;7430684;19;20372;-89
2023/12/31 05:12:37;;;;;;;8.47;6.20;;;;;;;2.33;100.00;95178.41;7430014;19;20424;-91
2023/12/31 05:15:18;;;;;;;8.93;6.30;;;;;;;2.25;100.00;95135.78;7418431;19;20400;-92
2023/12/31 05:17:59;;;;;;;6.37;5.73;;;;;;;1.13;100.00;94997.16;7417250;19;20396;-91
2023/12/31 05:20:40;;;;;;;8.23;5.40;;;;;;;2.81;100.00;95253.56;7417780;19;20674;-91
2023/12/31 05:23:21;;;;;;;7.03;6.33;;;;;;;2.12;100.00;95144.19;7416337;19;20440;-91
2023/12/31 05:26:03;;;;;;;7.00;5.60;;;;;;;2.41;100.00;95188.19;7418419;19;20373;-92
2023/12/31 05:28:44;;;;;;;8.07;5.47;;;;;;;2.47;100.00;95183.72;7416314;19;20453;-91
2023/12/31 05:31:25;;;;;;;11.63;7.37;;;;;;;2.66;100.00;95202.69;7401427;19;20619;-92
2023/12/31 05:34:07;;;;;;;9.07;7.23;;;;;;;3.36;100.00;95283.28;7401616;19;20372;-91
2023/12/31 05:36:48;;;;;;;7.10;6.40;;;;;;;2.97;100.00;95221.25;7400629;19;20368;-92
2023/12/31 05:39:29;;;;;;;7.40;6.70;;;;;;;2.14;100.00;95118.81;7401115;19;20397;-91
2023/12/31 05:42:10;;;;;;;10.90;7.00;;;;;;;3.14;100.00;95247.50;7400457;19;20898;-92
2023/12/31 05:44:51;;;;;;;6.33;5.73;;;;;;;1.73;100.00;95041.59;7400888;19;20381;-92
2023/12/31 05:47:34;;;;;;;6.90;6.30;;;;;;;2.28;100.00;95152.59;7418236;19;20393;-92
2023/12/31 05:50:15;;;;;;;6.60;5.93;;;;;;;2.81;100.00;95262.13;7421486;19;20376;-91
2023/12/31 05:52:56;;;;;;;9.10;7.27;;;;;;;2.10;100.00;95151.47;7420147;19;20427;-87
2023/12/31 05:55:37;;;;;;;8.57;6.83;;;;;;;2.49;100.00;95192.75;7401155;19;20364;-92
2023/12/31 05:58:18;;;;;;;6.40;5.80;;;;;;;1.62;100.00;95047.91;7400806;19;20367;-92
2023/12/31 06:01:00;;;;;;;7.43;6.77;;;;;;;1.54;100.00;95027.81;7400663;19;20391;-92
2023/12/31 06:03:41;;;;;;;7.07;6.40;;;;;;;1.95;100.00;95099.84;7400179;19;20376;-91
2023/12/31 06:06:22;;;;;;;7.30;6.60;;;;;;;1.51;100.00;95029.13;7399717;19;20380;-91
2023/12/31 06:09:03;;;;;;;8.80;6.27;;;;;;;2.59;100.00;95186.69;7398287;19;20452;-92
2023/12/31 06:11:44;;;;;;;6.73;5.90;;;;;;;2.10;100.00;95105.66;7401064;19;20377;-91
2023/12/31 06:14:25;;;;;;;6.30;5.80;;;;;;;2.51;100.00;95164.00;7399407;19;20373;-90
2023/12/31 06:17:07;;;;;;;6.97;6.27;;;;;;;2.28;100.00;95114.53;7399913;19;20448;-91
2023/12/31 06:19:48;;;;;;;6.33;5.57;;;;;;;2.44;100.00;95124.72;7397882;19;20357;-92
2023/12/31 06:22:29;;;;;;;5.40;4.90;;;;;;;1.48;100.00;95003.84;7398970;19;20393;-91
2023/12/31 06:25:13;;;;;;;6.70;5.67;;;;;;;2.14;100.00;95102.53;7398288;19;20411;-92
2023/12/31 06:27:56;;;;;;;6.47;5.43;;;;;;;2.33;100.00;95129.22;7401444;19;20369;-92
2023/12/31 06:30:38;;;;;;;11.13;6.33;;;;;;;2.18;100.00;95096.50;7400215;19;20416;-91
2023/12/31 06:33:19;;;;;;;10.80;9.30;;;;;;;1.58;100.00;95020.31;7397929;19;20420;-91
2023/12/31 06:36:00;;;;;;;14.10;7.87;;;;;;;1.48;100.00;95013.41;7398930;19;20353;-91
2023/12/31 06:38:41;;;;;;;10.73;9.63;;;;;;;1.88;100.00;95095.00;7398798;19;20893;-91
2023/12/31 06:41:27;;;;;;;9.67;6.87;;;;;;;1.79;100.00;95102.56;7398798;19;20392;-91
2023/12/31 06:44:08;;;;;;;12.83;6.77;;;;;;;1.37;100.00;95017.88;7398508;19;20373;-91
2023/12/31 06:46:50;;;;;;;10.40;9.40;;;;;;;2.02;100.00;95089.97;7399635;19;20373;-91
2023/12/31 06:49:31;;;;;;;13.40;11.73;;;;;;;2.47;100.00;95140.47;7397939;19;20376;-91
2023/12/31 06:52:13;;;;;;;12.93;10.90;;;;;;;2.20;100.00;95104.78;7398610;19;20420;-91
2023/12/31 06:54:55;;;;;;;12.07;10.90;;;;;;;1.87;100.00;95092.69;7399226;19;20360;-91
2023/12/31 06:57:36;;;;;;;16.23;14.13;;;;;;;1.06;100.00;94996.69;7400651;19;20393;-91
2023/12/31 07:00:22;;;;;;;27.03;16.87;;;;;;;1.55;100.00;95069.94;7401016;19;20376;-90
2023/12/31 07:03:05;;;;;;;18.27;13.13;;;;;;;0.60;100.00;94942.03;7400166;19;20404;-91
2023/12/31 07:05:47;;;;;;;17.60;13.90;;;;;;;1.66;100.00;95094.66;7403150;19;20376;-91
2023/12/31 07:08:28;;;;;;;22.40;17.87;;;;;;;2.32;100.00;95148.41;7399524;19;20384;-91
2023/12/31 07:11:10;;;;;;;43.00;29.67;;;;;;;2.19;100.00;95139.47;7398697;19;20380;-87
2023/12/31 07:13:51;;;;;;;27.70;20.30;;;;;;;2.64;100.00;95158.19;7398517;19;20657;-93
2023/12/31 07:16:32;;;;;;;17.37;13.77;;;;;;;2.54;100.00;95153.09;7401155;19;20376;-94
2023/12/31 07:19:14;;;;;;;19.03;11.70;;;;;;;2.05;100.00;95092.75;7399393;19;20364;-95
2023/12/31 07:21:55;;;;;;;16.77;12.53;;;;;;;1.90;100.00;95053.34;7398948;19;20397;-94
2023/12/31 07:24:36;;;;;;;24.60;18.97;;;;;;;2.21;100.00;95103.72;7397897;19;20400;-94
2023/12/31 07:27:17;;;;;;;50.27;29.67;;;;;;;2.26;100.00;95115.84;7398986;19;20444;-95
2023/12/31 07:29:58;;;;;;;44.10;28.20;;;;;;;1.98;100.00;95056.09;7399846;19;20881;-95
2023/12/31 07:32:40;;;;;;;31.27;21.83;;;;;;;2.25;100.00;95088.44;7412271;19;20376;-95
2023/12/31 07:35:21;;;;;;;34.90;21.90;;;;;;;2.84;100.00;95172.72;7413836;19;20385;-94
2023/12/31 07:38:08;;;;;;;29.80;20.20;;;;;;;2.10;100.00;95059.09;7413736;19;20356;-94
2023/12/31 07:40:49;;;;;;;28.10;16.60;;;;;;;2.03;100.00;95035.34;7413232;19;20368;-94
2023/12/31 07:43:31;;;;;;;19.97;14.93;;;;;;;1.37;100.00;94924.84;7414457;19;20380;-94
2023/12/31 07:46:13;;;;;;;29.57;20.47;;;;;;;2.45;100.00;95051.19;7413476;19;20855;-95
2023/12/31 07:48:54;;;;;;;27.77;23.10;;;;;;;2.38;100.00;95029.00;7412144;19;20372;-95
2023/12/31 07:51:35;;;;;;;30.43;21.80;;;;;;;2.47;100.00;95029.13;7417917;19;20416;-94
2023/12/31 07:54:17;;;;;;;26.43;19.83;;;;;;;2.66;100.00;95070.63;7415432;19;20372;-95
2023/12/31 07:56:59;;;;;;;23.43;19.20;;;;;;;3.26;100.00;95139.00;7439782;19;20389;-92
2023/12/31 07:59:40;;;;;;;26.43;18.87;;;;;;;2.22;100.00;95001.75;7438779;19;20383;-94
2023/12/31 08:02:21;;;;;;;22.70;17.10;;;;;;;2.65;100.00;95040.59;7435889;19;20400;-93
2023/12/31 08:05:03;;;;;;;22.37;17.23;;;;;;;2.85;100.00;95048.06;7417839;19;20837;-95
2023/12/31 08:07:44;;;;;;;18.03;15.53;;;;;;;2.94;100.00;95051.59;7413762;19;20396;-94
2023/12/31 08:10:26;;;;;;;19.70;14.87;;;;;;;1.90;100.00;94878.22;7413911;19;20666;-95
2023/12/31 08:13:07;;;;;;;15.10;13.50;;;;;;;2.81;100.00;95023.00;7415072;19;20415;-93
2023/12/31 08:15:49;;;;;;;15.83;14.00;;;;;;;2.95;100.00;95039.41;7415038;19;20384;-93
2023/12/31 08:18:30;;;;;;;19.40;16.00;;;;;;;2.92;100.00;95040.72;7417807;19;20365;-93
2023/12/31 08:21:12;;;;;;;23.10;19.47;;;;;;;2.50;100.00;94971.66;7416547;19;20412;-94
2023/12/31 08:23:53;;;;;;;19.47;17.00;;;;;;;3.76;100.00;95156.69;7413397;19;20725;-92
2023/12/31 08:26:36;;;;;;;20.27;17.30;;;;;;;2.45;100.00;94960.56;7416487;19;20372;-92
2023/12/31 08:29:18;;;;;;;18.00;15.20;;;;;;;3.57;100.00;95115.22;7415576;19;20408;-92
2023/12/31 08:32:00;;;;;;;16.57;14.90;;;;;;;2.82;100.00;95017.56;7415784;19;20423;-93
2023/12/31 08:34:41;;;;;;;15.20;13.60;;;;;;;2.61;100.00;94983.38;7417474;19;20368;-96
2023/12/31 08:37:22;;;;;;;20.10;13.67;;;;;;;3.10;100.00;95036.56;7417424;19;20373;-93
2023/12/31 08:40:04;;;;;;;13.43;11.30;;;;;;;3.33;100.00;95073.06;7415971;19;20830;-94
2023/12/31 08:42:46;;;;;;;14.00;12.20;;;;;;;3.00;100.00;94998.63;7409041;19;20413;-95
2023/12/31 08:45:27;;;;;;;13.87;12.40;;;;;;;3.19;100.00;95011.56;7409937;19;20383;-95
2023/12/31 08:48:10;;;;;;;14.37;11.83;;;;;;;3.39;100.00;95018.25;7410379;19;20446;-95
2023/12/31 08:50:51;;;;;;;14.03;7.90;;;;;;;3.61;100.00;95004.66;7409919;19;20384;-95
2023/12/31 08:53:32;;;;;;;11.13;10.00;;;;;;;3.42;100.00;94996.16;7408063;19;20792;-93
2023/12/31 08:56:13;;;;;;;9.93;8.47;;;;;;;3.39;100.00;95007.09;7410404;19;20365;-92
2023/12/31 08:58:55;;;;;;;6.83;6.17;;;;;;;3.64;100.00;95034.44;7405453;19;20393;-95
2023/12/31 09:01:36;;;;;;;8.70;7.90;;;;;;;3.39;100.00;94996.72;7404033;19;20407;-92
2023/12/31 09:04:17;;;;;;;8.53;7.63;;;;;;;4.04;100.00;95075.25;7404451;19;20368;-94
2023/12/31 09:06:58;;;;;;;11.80;9.23;;;;;;;3.36;100.00;94951.41;7404538;19;20414;-94
2023/12/31 09:09:40;;;;;;;10.80;9.70;;;;;;;4.44;100.00;95099.72;7402423;19;20433;-94
2023/12/31 09:12:21;;;;;;;13.90;10.23;;;;;;;4.45;100.00;95082.28;7403034;19;20405;-93
2023/12/31 09:15:03;;;;;;;14.37;10.20;;;;;;;3.70;100.00;94948.47;7405340;19;20365;-93
2023/12/31 09:17:44;;;;;;;12.23;9.57;;;;;;;4.05;100.00;95004.09;7406636;19;20385;-94
2023/12/31 09:20:25;;;;;;;11.07;9.60;;;;;;;3.93;100.00;94990.06;7406386;19;20376;-94
2023/12/31 09:23:06;;;;;;;12.13;11.03;;;;;;;4.54;100.00;95067.59;7402396;19;20503;-92
2023/12/31 09:25:48;;;;;;;11.43;9.83;;;;;;;4.08;100.00;94990.53;7406009;19;20392;-93
2023/12/31 09:28:29;;;;;;;11.70;9.60;;;;;;;4.19;100.00;94972.94;7406150;19;20393;-93
2023/12/31 09:31:10;;;;;;;12.10;10.60;;;;;;;4.61;100.00;95013.38;7407150;19;20485;-92
2023/12/31 09:33:52;;;;;;;14.83;11.50;;;;;;;4.62;100.00;95004.53;7407364;19;20845;-93
2023/12/31 09:36:33;;;;;;;11.83;9.50;;;;;;;4.40;100.00;94974.09;7405571;19;20400;-91
2023/12/31 09:39:14;;;;;;;12.90;10.43;;;;;;;5.01;100.00;95024.72;7407869;19;20376;-92
2023/12/31 09:42:01;;;;;;;13.93;12.50;;;;;;;5.12;100.00;95025.28;7403600;19;20408;-93
2023/12/31 09:44:43;;;;;;;11.53;8.50;;;;;;;4.77;100.00;94969.69;7406263;19;20369;-93
2023/12/31 09:47:25;;;;;;;12.17;8.10;;;;;;;5.00;100.00;94994.59;7410848;19;20408;-92
2023/12/31 09:50:07;;;;;;;11.40;7.20;;;;;;;4.96;100.00;94951.31;7404165;19;20395;-92
2023/12/31 09:52:50;;;;;;;10.93;9.77;;;;;;;5.15;100.00;94970.06;7403635;19;20400;-93
2023/12/31 09:55:33;;;;;;;10.07;7.60;;;;;;;5.51;100.00;95011.63;7403265;19;20380;-92
2023/12/31 09:58:18;;;;;;;10.40;8.07;;;;;;;6.25;100.00;95108.19;7403285;19;20398;-93
2023/12/31 10:00:59;;;;;;;28.13;20.60;;;;;;;5.50;100.00;95004.88;7403990;19;20968;-93
2023/12/31 10:03:44;;;;;;;13.77;11.47;;;;;;;4.30;100.00;94838.50;7403510;19;20373;-95
2023/12/31 10:06:26;;;;;;;9.30;8.30;;;;;;;4.89;100.00;94901.56;7402298;19;20383;-93
2023/12/31 10:09:10;;;;;;;11.10;9.30;;;;;;;4.68;100.00;94896.06;7401930;19;20373;-94
2023/12/31 10:11:51;;;;;;;12.20;9.80;;;;;;;5.63;100.00;95034.50;7402465;19;20415;-93
2023/12/31 10:14:32;;;;;;;20.70;16.27;;;;;;;5.47;100.00;95005.47;7402576;19;20369;-94
2023/12/31 10:17:13;;;;;;;17.73;14.90;;;;;;;4.87;100.00;94922.63;7403519;19;20369;-93
2023/12/31 10:19:57;;;;;;;21.40;17.03;;;;;;;4.20;100.00;94829.09;7400980;19;20411;-93
2023/12/31 10:22:38;;;;;;;20.23;16.80;;;;;;;5.02;100.00;94963.88;7399067;19;20421;-92
2023/12/31 10:25:24;;;;;;;19.23;13.80;;;;;;;4.76;100.00;94916.13;7413497;19;20388;-92
2023/12/31 10:28:05;;;;;;;19.00;16.83;;;;;;;5.22;100.00;94972.28;7420838;19;20426;-93
2023/12/31 10:30:48;;;;;;;11.50;9.87;;;;;;;5.10;100.00;94949.41;7420555;19;20381;-93
2023/12/31 10:33:29;;;;;;;10.63;8.73;;;;;;;5.27;100.00;94956.53;7420253;19;20368;-92
2023/12/31 10:36:11;;;;;;;10.33;8.90;;;;;;;5.06;100.00;94905.03;7416514;19;20384;-93
2023/12/31 10:38:52;;;;;;;11.30;8.40;;;;;;;5.64;100.00;94966.53;7400550;19;20381;-91
2023/12/31 10:41:36;;;;;;;7.93;7.10;;;;;;;5.43;100.00;94926.47;7402031;19;20395;-93
2023/12/31 10:44:17;;;;;;;12.67;8.80;;;;;;;5.55;100.00;94928.53;7402867;19;20380;-92
2023/12/31 10:47:01;;;;;;;9.00;7.60;;;;;;;5.56;100.00;94919.66;7403494;19;20413;-92
2023/12/31 10:49:46;;;;;;;9.23;8.17;;;;;;;5.86;100.00;94944.88;7402892;19;20400;-93
2023/12/31 10:52:29;;;;;;;8.33;7.53;;;;;;;6.40;100.00;94994.97;7406301;19;20412;-92
2023/12/31 10:55:13;;;;;;;12.40;8.70;;;;;;;5.91;100.00;94902.31;7404145;19;20377;-93
2023/12/31 10:57:56;;;;;;;11.03;9.27;;;;;;;6.35;100.00;94942.22;7403180;19;20874;-93
2023/12/31 11:00:37;;;;;;;9.60;7.60;;;;;;;5.80;100.00;94856.81;7400957;19;20384;-93
2023/12/31 11:03:19;;;;;;;15.10;10.40;;;;;;;6.06;100.00;94875.84;7397424;19;20432;-92
2023/12/31 11:06:01;;;;;;;25.53;13.50;;;;;;;6.55;100.00;94934.59;7398508;19;20451;-93
2023/12/31 11:08:45;;;;;;;15.53;9.73;;;;;;;6.25;100.00;94902.41;7398557;19;20384;-93
2023/12/31 11:11:26;;;;;;;25.17;15.50;;;;;;;6.63;100.00;94935.66;7399440;19;20395;-93
2023/12/31 11:14:10;;;;;;;13.67;8.90;;;;;;;7.23;100.00;95020.19;7399206;19;20364;-93
2023/12/31 11:17:07;;;;;;;11.67;6.97;;;;;;;7.15;100.00;94999.00;7398628;19;20368;-93
2023/12/31 11:20:17;;;;;;;9.70;6.90;;;;;;;7.05;100.00;94967.28;7399511;19;20384;-93
2023/12/31 11:23:19;;;;;;;12.80;8.60;;;;;;;5.97;100.00;94797.75;7396449;19;20416;-94
2023/12/31 11:26:00;;;;;;;8.67;7.40;;;;;;;7.11;100.00;94966.78;7398727;19;20459;-93
2023/12/31 11:28:48;;;;;;;10.90;9.83;;;;;;;7.35;100.00;94968.91;7397643;19;20854;-94
2023/12/31 11:31:29;;;;;;;8.30;6.93;;;;;;;6.59;100.00;94869.59;7398121;19;20691;-93
2023/12/31 11:34:10;;;;;;;10.10;5.90;;;;;;;6.20;100.00;94800.19;7398802;19;20365;-93
2023/12/31 11:36:59;;;;;;;9.37;6.40;;;;;;;6.76;100.00;94871.41;7398662;19;20373;-93
2023/12/31 11:39:46;;;;;;;8.77;6.80;;;;;;;7.18;100.00;94926.44;7398570;19;20399;-94
2023/12/31 11:42:27;;;;;;;8.00;6.50;;;;;;;7.47;100.00;94950.00;7396535;19;20408;-93
2023/12/31 11:45:54;;;;;;;8.00;6.10;;;;;;;7.33;100.00;94913.66;7397773;19;20357;-94
2023/12/31 11:48:37;;;;;;;8.77;6.53;;;;;;;7.44;100.00;94927.91;7396667;19;20395;-92
2023/12/31 11:51:20;;;;;;;7.23;5.87;;;;;;;6.67;100.00;94797.69;7398592;19;20402;-92
2023/12/31 11:54:02;;;;;;;7.80;5.80;;;;;;;6.72;100.00;94816.53;7398467;19;20380;-92
2023/12/31 11:56:45;;;;;;;11.73;6.50;;;;;;;6.48;100.00;94758.91;7398908;19;20391;-92
2023/12/31 11:59:27;;;;;;;11.73;6.93;;;;;;;6.55;100.00;94754.78;7400667;19;20377;-92
2023/12/31 12:02:08;;;;;;;7.27;5.50;;;;;;;6.95;100.00;94811.88;7399753;19;20432;-94
2023/12/31 12:04:49;;;;;;;9.30;6.70;;;;;;;6.19;100.00;94707.47;7400406;19;20380;-93
2023/12/31 12:07:30;;;;;;;6.80;5.27;;;;;;;7.31;100.00;94853.19;7399498;19;20389;-92
2023/12/31 12:10:12;;;;;;;6.30;5.33;;;;;;;7.35;100.00;94840.28;7395651;19;20412;-92
2023/12/31 12:12:56;;;;;;;6.90;5.53;;;;;;;6.52;100.00;94715.53;7395418;19;20413;-92
2023/12/31 12:15:38;;;;;;;7.20;5.27;;;;;;;7.73;100.00;94882.03;7398161;19;20383;-93
2023/12/31 12:18:21;;;;;;;6.47;5.27;;;;;;;7.71;100.00;94868.53;7402361;19;20467;-92
2023/12/31 12:21:03;;;;;;;5.50;4.83;;;;;;;6.68;100.00;94706.13;7404972;19;20425;-93
2023/12/31 12:23:44;;;;;;;6.40;5.80;;;;;;;7.44;100.00;94830.59;7403033;19;20396;-93
2023/12/31 12:26:28;;;;;;;8.30;6.00;;;;;;;6.64;100.00;94709.66;7404543;19;20396;-84
2023/12/31 12:29:10;;;;;;;7.20;6.47;;;;;;;7.89;100.00;94879.66;7402132;19;20387;-85
2023/12/31 12:31:56;;;;;;;8.07;6.03;;;;;;;7.37;100.00;94812.78;7403035;19;20476;-84
2023/12/31 12:34:43;;;;;;;6.37;5.70;;;;;;;6.85;100.00;94737.34;7404086;19;20381;-85
2023/12/31 12:37:29;;;;;;;6.63;5.33;;;;;;;7.24;100.00;94792.13;7404353;19;20384;-84
2023/12/31 12:40:19;;;;;;;6.23;5.50;;;;;;;7.67;100.00;94860.53;7403538;19;20388;-85